Time;durP1;ratioP1;P1;durP2;ratioP2;P2;SDS_P1;SDS_P2;PMS_P1;PMS_P2;Temp;Humidity;BMP_temperature;BMP_pressure;BME280_temperature;BME280_humidity;BME280_pressure;Samples;Min_cycle;Max_cycle;Signal;HPM_P1;HPM_P2
2021/11/23 00:00:55;;;;;;;0.99;0.45;;;;;;;7.18;62.32;100817.95;471748;110;922918;-83
2021/11/23 00:01:59;;;;;;;0.46;0.46;;;;;;;7.16;62.37;100819.18;472876;109;922579;-84
2021/11/23 00:03:05;;;;;;;0.68;0.47;;;;;;;7.15;62.59;100820.20;468534;109;922560;-85
2021/11/23 00:04:09;;;;;;;0.52;0.52;;;;;;;7.15;62.60;100818.34;472037;110;922718;-85
2021/11/23 00:05:13;;;;;;;0.35;0.29;;;;;;;7.13;62.53;100810.37;471763;110;922470;-85
2021/11/23 00:06:18;;;;;;;0.50;0.40;;;;;;;7.10;62.62;100815.34;473065;109;922395;-84
2021/11/23 00:07:22;;;;;;;0.46;0.43;;;;;;;7.09;62.78;100817.21;472590;109;930291;-85
2021/11/23 00:08:26;;;;;;;0.57;0.55;;;;;;;7.10;62.92;100816.19;472588;109;929999;-84
2021/11/23 00:09:29;;;;;;;1.33;0.94;;;;;;;7.12;63.07;100814.11;471315;109;922399;-85
2021/11/23 00:10:33;;;;;;;4.36;2.09;;;;;;;7.17;63.16;100815.45;472414;109;922571;-84
2021/11/23 00:11:37;;;;;;;2.35;1.63;;;;;;;7.22;63.17;100826.58;470927;109;930308;-84
2021/11/23 00:12:42;;;;;;;1.81;1.15;;;;;;;7.23;63.05;100810.09;471952;109;922490;-84
2021/11/23 00:13:47;;;;;;;2.08;1.58;;;;;;;7.24;63.06;100821.78;468449;109;922323;-83
2021/11/23 00:14:53;;;;;;;1.51;1.04;;;;;;;7.25;63.11;100815.33;471116;110;922906;-83
2021/11/23 00:15:56;;;;;;;1.55;1.03;;;;;;;7.27;63.06;100821.42;470303;110;923028;-84
2021/11/23 00:17:00;;;;;;;1.74;1.26;;;;;;;7.29;63.04;100822.06;471109;109;922540;-84
2021/11/23 00:18:06;;;;;;;1.55;0.94;;;;;;;7.30;62.96;100810.19;471229;110;922624;-84
2021/11/23 00:19:09;;;;;;;1.16;0.84;;;;;;;7.30;63.00;100812.90;471947;109;922672;-84
2021/11/23 00:20:14;;;;;;;1.04;0.82;;;;;;;7.33;62.82;100820.68;471152;109;923149;-85
2021/11/23 00:21:17;;;;;;;1.23;0.75;;;;;;;7.31;62.81;100815.43;471887;110;922588;-84
2021/11/23 00:22:21;;;;;;;1.00;0.69;;;;;;;7.31;62.89;100822.72;472612;109;922565;-85
2021/11/23 00:23:25;;;;;;;0.63;0.61;;;;;;;7.31;62.85;100822.72;471596;109;923291;-84
2021/11/23 00:24:30;;;;;;;1.21;0.90;;;;;;;7.31;62.73;100817.30;471023;109;922652;-84
2021/11/23 00:25:33;;;;;;;1.69;1.01;;;;;;;7.30;62.74;100818.33;472073;110;922610;-85
2021/11/23 00:26:38;;;;;;;2.02;1.26;;;;;;;7.30;62.69;100829.17;470553;109;922518;-85
2021/11/23 00:27:42;;;;;;;2.50;1.44;;;;;;;7.30;62.79;100826.46;470853;110;922486;-84
2021/11/23 00:28:46;;;;;;;2.18;1.42;;;;;;;7.30;62.79;100827.30;465845;112;922846;-85
2021/11/23 00:29:50;;;;;;;2.28;1.24;;;;;;;7.29;62.72;100830.20;465776;111;922651;-84
2021/11/23 00:30:53;;;;;;;2.38;1.39;;;;;;;7.28;62.75;100831.22;464706;111;922642;-84
2021/11/23 00:31:57;;;;;;;2.92;1.46;;;;;;;7.28;62.86;100834.77;465230;111;923048;-84
2021/11/23 00:33:01;;;;;;;1.49;0.99;;;;;;;7.30;62.88;100829.17;471581;110;930375;-85
2021/11/23 00:34:05;;;;;;;1.57;1.16;;;;;;;7.30;62.61;100826.46;471659;109;922663;-84
2021/11/23 00:35:09;;;;;;;1.51;1.04;;;;;;;7.30;62.61;100826.46;469666;110;930762;-85
2021/11/23 00:36:14;;;;;;;2.26;1.29;;;;;;;7.30;62.65;100829.17;470419;109;922632;-84
2021/11/23 00:37:19;;;;;;;2.11;1.29;;;;;;;7.29;62.53;100833.75;471235;109;922847;-83
2021/11/23 00:38:22;;;;;;;2.86;1.62;;;;;;;7.28;62.36;100828.50;471635;109;923010;-84
2021/11/23 00:39:27;;;;;;;3.33;1.65;;;;;;;7.24;62.33;100838.90;470272;109;922649;-84
2021/11/23 00:40:31;;;;;;;2.16;1.69;;;;;;;7.19;62.22;100830.48;470795;110;922597;-85
2021/11/23 00:41:35;;;;;;;3.54;1.98;;;;;;;7.13;62.27;100829.36;471120;110;923742;-85
2021/11/23 00:42:39;;;;;;;3.23;1.81;;;;;;;7.10;62.35;100831.61;470196;109;922505;-85
2021/11/23 00:43:44;;;;;;;2.68;1.31;;;;;;;7.08;62.49;100839.92;472638;109;922929;-85
2021/11/23 00:44:47;;;;;;;2.78;1.53;;;;;;;7.08;62.44;100833.66;472160;109;923134;-84
2021/11/23 00:45:51;;;;;;;2.92;1.88;;;;;;;7.06;62.41;100835.70;472178;109;922743;-85
2021/11/23 00:46:55;;;;;;;2.72;1.65;;;;;;;7.04;62.43;100835.06;471085;109;922968;-84
2021/11/23 00:47:59;;;;;;;3.11;1.69;;;;;;;7.04;62.49;100835.06;470282;110;922566;-84
2021/11/23 00:49:03;;;;;;;2.91;1.91;;;;;;;7.03;62.47;100836.09;471590;109;930782;-85
2021/11/23 00:50:08;;;;;;;2.91;1.42;;;;;;;7.03;62.42;100830.66;470879;109;922617;-85
2021/11/23 00:51:13;;;;;;;2.77;1.58;;;;;;;7.01;62.45;100828.12;473594;109;922640;-85
2021/11/23 00:52:18;;;;;;;2.26;1.32;;;;;;;7.03;62.51;100830.66;472910;110;922395;-84
2021/11/23 00:53:22;;;;;;;1.69;1.02;;;;;;;7.02;62.67;100826.27;471296;111;922648;-84
2021/11/23 00:54:26;;;;;;;1.32;0.99;;;;;;;7.06;62.65;100828.41;471471;109;922252;-84
2021/11/23 00:55:31;;;;;;;1.16;0.82;;;;;;;7.10;62.67;100831.61;472165;109;922496;-83
2021/11/23 00:56:35;;;;;;;0.99;0.70;;;;;;;7.12;62.61;100833.09;472975;109;922737;-84
2021/11/23 00:57:39;;;;;;;0.89;0.72;;;;;;;7.12;62.35;100824.96;474304;109;922335;-85
2021/11/23 00:58:44;;;;;;;1.16;0.83;;;;;;;7.09;62.28;100828.06;472409;110;922755;-84
2021/11/23 00:59:48;;;;;;;0.84;0.72;;;;;;;7.07;62.36;100821.97;472368;110;922948;-85
2021/11/23 01:00:51;;;;;;;0.99;0.75;;;;;;;7.07;62.46;100824.68;472458;109;922922;-84
2021/11/23 01:01:55;;;;;;;0.68;0.52;;;;;;;7.07;62.45;100819.26;471897;110;930621;-84
2021/11/23 01:02:59;;;;;;;0.70;0.68;;;;;;;7.08;62.48;100820.95;471086;110;922507;-84
2021/11/23 01:04:03;;;;;;;1.02;0.79;;;;;;;7.08;62.28;100820.10;470591;110;922591;-84
2021/11/23 01:05:09;;;;;;;1.18;0.60;;;;;;;7.04;62.23;100818.80;470150;109;922831;-84
2021/11/23 01:06:13;;;;;;;1.02;0.74;;;;;;;7.00;62.39;100823.73;470386;109;922888;-83
2021/11/23 01:07:17;;;;;;;0.66;0.55;;;;;;;6.99;62.54;100815.80;469587;109;922570;-83
2021/11/23 01:08:23;;;;;;;0.91;0.66;;;;;;;7.00;62.70;100818.31;471271;109;922638;-85
2021/11/23 01:09:28;;;;;;;0.71;0.55;;;;;;;7.03;62.86;100825.24;471187;109;922591;-83
2021/11/23 01:10:32;;;;;;;0.88;0.68;;;;;;;7.06;62.89;100819.44;471888;109;930429;-84
2021/11/23 01:11:35;;;;;;;1.11;0.79;;;;;;;7.10;62.88;100818.06;469339;111;922620;-84
2021/11/23 01:12:39;;;;;;;0.91;0.74;;;;;;;7.12;62.80;100816.83;472678;110;922711;-85
2021/11/23 01:13:45;;;;;;;1.13;0.68;;;;;;;7.15;62.78;100817.49;472095;109;923034;-84
2021/11/23 01:14:49;;;;;;;0.83;0.64;;;;;;;7.16;62.63;100816.47;471719;109;922645;-84
2021/11/23 01:15:53;;;;;;;0.95;0.71;;;;;;;7.14;62.64;100819.36;459375;113;923076;-85
2021/11/23 01:16:57;;;;;;;0.56;0.54;;;;;;;7.15;62.58;100822.91;472532;109;922504;-84
2021/11/23 01:18:00;;;;;;;1.66;0.83;;;;;;;7.13;62.54;100818.52;471606;109;922706;-83
2021/11/23 01:19:07;;;;;;;1.48;0.78;;;;;;;7.13;62.50;100825.80;470728;109;922610;-83
2021/11/23 01:20:11;;;;;;;1.51;0.53;;;;;;;7.10;62.40;100820.77;468734;111;922616;-84
2021/11/23 01:21:15;;;;;;;0.66;0.62;;;;;;;7.05;62.45;100826.75;470140;109;923167;-84
2021/11/23 01:22:18;;;;;;;0.94;0.66;;;;;;;7.02;62.59;100832.53;472864;109;923172;-84
2021/11/23 01:23:22;;;;;;;1.05;0.76;;;;;;;7.01;62.75;100822.70;472388;109;922588;-84
2021/11/23 01:24:26;;;;;;;1.34;0.70;;;;;;;7.02;62.85;100834.40;470933;110;922507;-84
2021/11/23 01:25:30;;;;;;;0.90;0.86;;;;;;;7.03;62.96;100836.93;471955;110;922580;-84
2021/11/23 01:26:34;;;;;;;1.20;1.05;;;;;;;7.06;63.01;100827.57;471159;109;930319;-85
2021/11/23 01:27:38;;;;;;;1.99;1.22;;;;;;;7.09;62.84;100829.92;472271;109;922576;-85
2021/11/23 01:28:42;;;;;;;1.28;1.08;;;;;;;7.09;62.73;100835.34;471640;109;923196;-84
2021/11/23 01:29:46;;;;;;;1.06;0.90;;;;;;;7.07;62.68;100831.97;471026;109;923079;-84
2021/11/23 01:30:50;;;;;;;0.92;0.79;;;;;;;7.06;62.81;100831.13;471611;110;922717;-84
2021/11/23 01:31:54;;;;;;;0.65;0.65;;;;;;;7.08;62.96;100826.37;462243;111;923587;-84
2021/11/23 01:32:58;;;;;;;0.71;0.65;;;;;;;7.11;63.07;100828.70;461249;111;922669;-84
2021/11/23 01:34:02;;;;;;;0.76;0.76;;;;;;;7.17;62.94;100829.00;472262;109;923671;-83
2021/11/23 01:35:08;;;;;;;0.88;0.85;;;;;;;7.20;62.99;100826.75;472332;109;922633;-85
2021/11/23 01:36:13;;;;;;;1.74;0.90;;;;;;;7.24;62.92;100816.36;471040;110;922671;-84
2021/11/23 01:37:17;;;;;;;1.32;0.96;;;;;;;7.25;62.73;100824.31;471009;110;922429;-85
2021/11/23 01:38:21;;;;;;;1.45;0.99;;;;;;;7.26;62.43;100819.73;472337;110;930245;-85
2021/11/23 01:39:25;;;;;;;1.36;1.01;;;;;;;7.24;62.36;100816.36;472059;109;922411;-85
2021/11/23 01:40:29;;;;;;;1.08;0.95;;;;;;;7.23;62.42;100820.94;471735;111;922612;-84
2021/11/23 01:41:32;;;;;;;1.16;1.06;;;;;;;7.25;62.53;100823.47;473316;109;922339;-84
2021/11/23 01:42:36;;;;;;;0.98;0.94;;;;;;;7.26;62.41;100817.02;472644;109;922995;-84
2021/11/23 01:43:41;;;;;;;1.43;0.98;;;;;;;7.25;62.40;100821.60;473054;109;922260;-85
2021/11/23 01:44:45;;;;;;;1.05;0.84;;;;;;;7.26;62.35;100817.02;472415;109;922545;-84
2021/11/23 01:45:49;;;;;;;1.29;0.73;;;;;;;7.26;62.23;100820.58;470448;110;922485;-84
2021/11/23 01:46:56;;;;;;;1.75;0.68;;;;;;;7.26;62.31;100823.30;472215;110;922885;-83
2021/11/23 01:48:00;;;;;;;0.94;0.92;;;;;;;7.27;62.32;100819.56;472375;109;922813;-84
2021/11/23 01:49:04;;;;;;;1.26;0.98;;;;;;;7.31;62.38;100820.02;471131;109;922797;-83
2021/11/23 01:50:11;;;;;;;1.71;0.81;;;;;;;7.35;62.32;100824.02;471415;110;923244;-84
2021/11/23 01:51:15;;;;;;;1.24;1.08;;;;;;;7.37;62.27;100816.55;471678;109;923076;-84
2021/11/23 01:52:19;;;;;;;1.02;0.88;;;;;;;7.38;61.98;100816.37;472283;109;922733;-84
2021/11/23 01:53:22;;;;;;;2.11;0.97;;;;;;;7.37;61.75;100817.39;471086;110;922862;-84
2021/11/23 01:54:27;;;;;;;1.28;0.96;;;;;;;7.34;61.69;100814.20;472186;109;923226;-84
2021/11/23 01:55:34;;;;;;;0.76;0.76;;;;;;;7.31;61.78;100814.59;472096;109;923076;-84
2021/11/23 01:56:37;;;;;;;1.24;1.04;;;;;;;7.31;61.88;100818.14;470436;109;922530;-84
2021/11/23 01:57:44;;;;;;;0.77;0.77;;;;;;;7.32;61.99;100821.70;470780;109;922787;-85
2021/11/23 01:58:48;;;;;;;1.61;1.39;;;;;;;7.33;61.94;100820.68;470010;111;922691;-85
2021/11/23 01:59:52;;;;;;;1.30;1.15;;;;;;;7.35;61.82;100824.02;469484;111;922493;-83
2021/11/23 02:00:56;;;;;;;1.94;1.54;;;;;;;7.34;61.69;100827.76;472374;109;922730;-83
2021/11/23 02:02:01;;;;;;;1.69;1.33;;;;;;;7.33;61.57;100821.48;470821;109;923075;-83
2021/11/23 02:03:07;;;;;;;1.81;1.38;;;;;;;7.30;61.47;100821.88;465463;111;922761;-83
2021/11/23 02:04:12;;;;;;;1.63;1.24;;;;;;;7.29;61.47;100822.06;466453;110;923210;-83
2021/11/23 02:05:16;;;;;;;2.27;1.65;;;;;;;7.27;61.50;100824.14;472723;109;923163;-85
2021/11/23 02:06:22;;;;;;;2.91;1.87;;;;;;;7.28;61.59;100820.37;472892;109;923213;-83
2021/11/23 02:07:25;;;;;;;2.78;1.87;;;;;;;7.29;61.54;100813.92;471197;110;922524;-85
2021/11/23 02:08:30;;;;;;;2.45;2.19;;;;;;;7.29;61.51;100813.92;472262;109;923904;-83
2021/11/23 02:09:34;;;;;;;2.32;2.11;;;;;;;7.30;61.59;100808.32;472079;109;922956;-84
2021/11/23 02:10:39;;;;;;;2.02;1.82;;;;;;;7.31;61.55;100810.01;471464;109;922943;-83
2021/11/23 02:11:43;;;;;;;2.82;2.29;;;;;;;7.33;61.39;100813.36;472865;109;923407;-84
2021/11/23 02:12:48;;;;;;;1.98;1.66;;;;;;;7.34;61.41;100814.20;471955;109;922651;-82
2021/11/23 02:13:52;;;;;;;2.58;2.14;;;;;;;7.34;61.25;100811.48;472080;109;923142;-84
2021/11/23 02:14:56;;;;;;;1.83;1.65;;;;;;;7.33;61.22;100817.97;471772;109;922731;-82
2021/11/23 02:16:00;;;;;;;1.93;1.62;;;;;;;7.33;61.25;100810.64;471676;109;922721;-83
2021/11/23 02:17:05;;;;;;;2.55;2.04;;;;;;;7.33;61.12;100807.12;466448;110;923135;-83
2021/11/23 02:18:14;;;;;;;2.21;1.80;;;;;;;7.31;61.13;100811.88;465063;111;923950;-83
2021/11/23 02:19:17;;;;;;;3.78;1.58;;;;;;;7.28;61.03;100806.81;465069;111;922592;-85
2021/11/23 02:20:23;;;;;;;1.71;1.60;;;;;;;7.24;61.04;100800.93;466276;112;922775;-83
2021/11/23 02:21:28;;;;;;;1.79;1.55;;;;;;;7.22;61.12;100802.17;465996;111;922550;-85
2021/11/23 02:22:32;;;;;;;1.51;1.34;;;;;;;7.21;61.08;100805.90;464774;111;923230;-83
2021/11/23 02:23:36;;;;;;;1.44;1.08;;;;;;;7.18;60.93;100801.68;448252;116;922565;-83
2021/11/23 02:24:40;;;;;;;1.85;1.55;;;;;;;7.14;60.98;100803.09;449438;114;922641;-83
2021/11/23 02:25:45;;;;;;;1.05;0.94;;;;;;;7.10;60.98;100805.34;447562;116;922786;-84
2021/11/23 02:26:49;;;;;;;1.22;0.99;;;;;;;7.07;60.87;100807.56;449018;115;922280;-85
2021/11/23 02:27:53;;;;;;;0.99;0.90;;;;;;;7.00;60.78;100803.94;449350;116;922567;-83
2021/11/23 02:28:56;;;;;;;0.81;0.80;;;;;;;6.93;60.85;100809.26;449580;116;922939;-82
2021/11/23 02:30:00;;;;;;;1.22;1.10;;;;;;;6.87;60.95;100807.28;448806;116;922544;-84
2021/11/23 02:31:06;;;;;;;1.00;0.82;;;;;;;6.86;61.02;100804.75;448626;116;922788;-83
2021/11/23 02:32:09;;;;;;;1.02;0.96;;;;;;;6.83;60.92;100807.84;456630;113;923062;-83
2021/11/23 02:33:16;;;;;;;1.01;0.94;;;;;;;6.79;61.05;100803.80;447174;115;922668;-85
2021/11/23 02:34:19;;;;;;;1.04;0.94;;;;;;;6.77;61.25;100811.30;456963;114;922861;-84
2021/11/23 02:35:24;;;;;;;0.83;0.83;;;;;;;6.77;61.33;100801.30;450846;114;922768;-85
2021/11/23 02:36:29;;;;;;;1.69;0.95;;;;;;;6.78;61.17;100799.44;449874;114;922776;-81
2021/11/23 02:37:33;;;;;;;2.01;0.95;;;;;;;6.75;61.18;100795.20;457682;113;922749;-84
2021/11/23 02:38:38;;;;;;;1.26;1.07;;;;;;;6.73;61.22;100799.15;449372;115;922762;-83
2021/11/23 02:39:42;;;;;;;1.31;1.18;;;;;;;6.70;61.16;100797.64;451408;114;923096;-83
2021/11/23 02:40:48;;;;;;;1.24;1.08;;;;;;;6.66;61.15;100796.33;448936;117;922618;-85
2021/11/23 02:41:52;;;;;;;1.70;1.33;;;;;;;6.62;61.21;100794.98;448650;116;922622;-84
2021/11/23 02:42:56;;;;;;;1.77;0.93;;;;;;;6.59;61.27;100798.08;457430;114;923002;-84
2021/11/23 02:44:00;;;;;;;0.99;0.94;;;;;;;6.56;61.24;100801.17;456318;113;922596;-83
2021/11/23 02:45:05;;;;;;;0.76;0.76;;;;;;;6.54;61.33;100801.34;457150;114;922757;-82
2021/11/23 02:46:10;;;;;;;0.81;0.78;;;;;;;6.54;61.49;100803.20;455951;113;922790;-83
2021/11/23 02:47:14;;;;;;;1.48;0.89;;;;;;;6.55;61.43;100796.77;449919;116;922736;-84
2021/11/23 02:48:19;;;;;;;0.86;0.83;;;;;;;6.54;61.40;100803.20;448866;116;922695;-82
2021/11/23 02:49:23;;;;;;;1.59;0.90;;;;;;;6.54;61.40;100800.50;455949;113;922812;-85
2021/11/23 02:50:28;;;;;;;1.03;0.78;;;;;;;6.52;61.40;100808.80;440296;117;922703;-83
2021/11/23 02:51:34;;;;;;;0.86;0.83;;;;;;;6.51;61.39;100800.84;459565;112;923010;-83
2021/11/23 02:52:40;;;;;;;0.82;0.82;;;;;;;6.50;61.47;100796.48;467021;112;923197;-82
2021/11/23 02:53:49;;;;;;;1.64;0.94;;;;;;;6.52;61.58;100802.54;464875;111;922682;-83
2021/11/23 02:54:54;;;;;;;0.78;0.76;;;;;;;6.52;61.51;100805.25;465691;112;922510;-86
2021/11/23 02:56:00;;;;;;;0.92;0.82;;;;;;;6.50;61.49;100808.16;451528;114;922827;-83
2021/11/23 02:57:04;;;;;;;1.28;0.94;;;;;;;6.50;61.60;100812.73;447790;115;922645;-81
2021/11/23 02:58:10;;;;;;;1.01;0.95;;;;;;;6.52;61.60;100802.54;456467;113;922849;-83
2021/11/23 02:59:13;;;;;;;0.96;0.88;;;;;;;6.53;61.65;100809.64;457173;113;922593;-83
2021/11/23 03:00:24;;;;;;;1.24;1.04;;;;;;;6.55;61.59;100807.61;456813;113;923212;-84
2021/11/23 03:01:28;;;;;;;1.17;1.07;;;;;;;6.58;61.53;100809.94;454427;115;922482;-83
2021/11/23 03:02:32;;;;;;;1.11;1.00;;;;;;;6.58;61.50;100813.48;455537;114;923009;-82
2021/11/23 03:03:36;;;;;;;1.59;1.33;;;;;;;6.58;61.41;100808.08;455991;113;923000;-82
2021/11/23 03:04:40;;;;;;;1.42;1.32;;;;;;;6.55;61.30;100808.45;455400;114;923127;-83
2021/11/23 03:05:43;;;;;;;1.25;1.15;;;;;;;6.51;61.26;100806.27;456399;115;922682;-83
2021/11/23 03:06:49;;;;;;;1.57;1.16;;;;;;;6.46;61.25;100805.98;454409;114;923057;-85
2021/11/23 03:07:54;;;;;;;1.83;1.44;;;;;;;6.42;61.30;100810.08;456717;115;922637;-85
2021/11/23 03:09:01;;;;;;;1.30;1.06;;;;;;;6.38;61.42;100815.03;454701;113;922502;-83
2021/11/23 03:10:07;;;;;;;1.70;1.49;;;;;;;6.38;61.57;100808.77;439004;118;922621;-82
2021/11/23 03:11:12;;;;;;;2.24;1.39;;;;;;;6.37;61.53;100807.92;441729;117;922915;-83
2021/11/23 03:12:17;;;;;;;1.36;1.24;;;;;;;6.36;61.55;100813.52;448458;116;922680;-84
2021/11/23 03:13:21;;;;;;;1.86;1.22;;;;;;;6.36;61.66;100811.66;456779;113;930339;-82
2021/11/23 03:14:25;;;;;;;2.39;1.59;;;;;;;6.39;61.76;100815.88;457168;115;922543;-83
2021/11/23 03:15:30;;;;;;;1.25;1.15;;;;;;;6.42;61.83;100807.38;457677;114;930138;-82
2021/11/23 03:16:34;;;;;;;1.66;1.56;;;;;;;6.46;61.84;100808.69;455970;114;922415;-82
2021/11/23 03:17:37;;;;;;;1.48;1.34;;;;;;;6.50;61.79;100804.61;460221;112;922505;-84
2021/11/23 03:18:41;;;;;;;1.11;1.01;;;;;;;6.53;61.67;100807.78;462696;112;922565;-83
2021/11/23 03:19:48;;;;;;;1.05;0.96;;;;;;;6.56;61.61;100812.01;460523;112;922468;-82
2021/11/23 03:20:52;;;;;;;1.77;1.10;;;;;;;6.58;61.54;100809.94;461399;112;922721;-83
2021/11/23 03:21:56;;;;;;;1.45;1.35;;;;;;;6.60;61.34;100802.48;460442;112;922335;-83
2021/11/23 03:23:00;;;;;;;1.59;1.39;;;;;;;6.60;61.33;100810.61;459199;112;922644;-84
2021/11/23 03:24:04;;;;;;;1.23;1.13;;;;;;;6.60;61.33;100806.03;460622;111;923026;-83
2021/11/23 03:25:08;;;;;;;1.40;1.29;;;;;;;6.62;61.27;100816.66;460863;112;923255;-86
2021/11/23 03:26:13;;;;;;;1.42;1.30;;;;;;;6.63;61.21;100805.65;458185;112;923366;-83
2021/11/23 03:27:18;;;;;;;1.30;1.20;;;;;;;6.64;61.10;100811.91;461268;112;923577;-84
2021/11/23 03:28:21;;;;;;;1.23;1.13;;;;;;;6.65;61.08;100806.32;459878;112;922882;-81
2021/11/23 03:29:25;;;;;;;1.67;1.57;;;;;;;6.66;61.04;100807.16;461194;112;922463;-83
2021/11/23 03:30:31;;;;;;;1.39;1.29;;;;;;;6.68;60.96;100813.22;459710;112;923287;-82
2021/11/23 03:31:35;;;;;;;1.91;1.31;;;;;;;6.67;60.93;100815.09;459472;112;928647;-84
2021/11/23 03:32:39;;;;;;;1.58;1.21;;;;;;;6.69;60.84;100823.05;455966;114;922756;-84
2021/11/23 03:33:43;;;;;;;1.55;1.45;;;;;;;6.68;60.77;100818.64;458204;113;922834;-83
2021/11/23 03:34:47;;;;;;;1.69;1.40;;;;;;;6.66;60.77;100821.56;460440;112;923046;-83
2021/11/23 03:35:51;;;;;;;1.55;1.45;;;;;;;6.63;60.66;100824.61;458573;112;923321;-84
2021/11/23 03:36:55;;;;;;;3.27;1.91;;;;;;;6.61;60.62;100825.84;460661;112;930315;-83
2021/11/23 03:38:00;;;;;;;2.43;1.68;;;;;;;6.57;60.57;100824.50;458056;113;922660;-82
2021/11/23 03:39:05;;;;;;;1.74;1.34;;;;;;;6.52;60.68;100826.92;457349;113;922666;-82
2021/11/23 03:40:10;;;;;;;1.96;1.67;;;;;;;6.50;60.85;100828.98;460333;113;922472;-84
2021/11/23 03:41:15;;;;;;;4.28;3.30;;;;;;;6.49;60.94;100825.44;461435;112;922751;-84
2021/11/23 03:42:21;;;;;;;4.02;3.41;;;;;;;6.50;60.97;100829.83;460248;112;922635;-84
2021/11/23 03:43:26;;;;;;;2.24;2.04;;;;;;;6.50;60.85;100827.13;460365;112;922709;-86
2021/11/23 03:44:29;;;;;;;1.85;1.53;;;;;;;6.48;60.93;100831.02;459996;112;922677;-83
2021/11/23 03:45:33;;;;;;;1.40;1.30;;;;;;;6.48;60.99;100831.88;460711;112;922938;-83
2021/11/23 03:46:37;;;;;;;2.05;1.65;;;;;;;6.48;60.98;100826.45;459374;113;922758;-84
2021/11/23 03:47:41;;;;;;;3.46;1.82;;;;;;;6.49;60.99;100832.72;460540;112;923101;-84
2021/11/23 03:48:45;;;;;;;2.45;2.24;;;;;;;6.49;60.97;100840.84;459327;112;922575;-83
2021/11/23 03:49:48;;;;;;;3.01;2.68;;;;;;;6.48;60.95;100836.44;460084;112;922624;-84
2021/11/23 03:50:52;;;;;;;2.29;2.04;;;;;;;6.46;60.98;100841.19;459109;112;930494;-83
2021/11/23 03:51:56;;;;;;;2.54;2.34;;;;;;;6.45;61.11;100842.23;458647;112;923015;-82
2021/11/23 03:53:00;;;;;;;3.76;3.31;;;;;;;6.45;61.20;100843.05;460045;113;922855;-84
2021/11/23 03:54:03;;;;;;;2.76;2.46;;;;;;;6.45;61.15;100848.47;459162;112;922732;-83
2021/11/23 03:55:10;;;;;;;2.85;2.46;;;;;;;6.43;61.07;100850.53;460128;112;923103;-86
2021/11/23 03:56:15;;;;;;;2.79;2.58;;;;;;;6.42;61.09;100848.00;459423;112;923059;-84
2021/11/23 03:57:19;;;;;;;2.88;2.49;;;;;;;6.39;61.11;100846.52;461335;112;922762;-83
2021/11/23 03:58:22;;;;;;;3.28;2.98;;;;;;;6.35;61.07;100845.17;458371;112;922721;-83
2021/11/23 03:59:26;;;;;;;2.83;2.61;;;;;;;6.32;61.18;100841.98;458139;112;922990;-83
2021/11/23 04:00:31;;;;;;;2.68;2.48;;;;;;;6.31;61.24;100840.30;460761;112;922655;-84
2021/11/23 04:01:35;;;;;;;2.37;2.17;;;;;;;6.28;61.22;100842.33;460628;112;923181;-84
2021/11/23 04:02:40;;;;;;;2.31;2.16;;;;;;;6.26;61.26;100847.11;461838;112;922609;-83
2021/11/23 04:03:44;;;;;;;3.03;2.36;;;;;;;6.23;61.28;100847.45;461358;112;924303;-83
2021/11/23 04:04:48;;;;;;;1.86;1.76;;;;;;;6.19;61.31;100846.13;460781;113;930302;-84
2021/11/23 04:05:52;;;;;;;1.64;1.54;;;;;;;6.17;61.34;100850.91;458229;115;922428;-83
2021/11/23 04:06:58;;;;;;;1.89;1.61;;;;;;;6.14;61.30;100840.42;466764;111;922872;-84
2021/11/23 04:08:01;;;;;;;1.81;1.59;;;;;;;6.04;61.45;100849.80;469369;109;922454;-84
2021/11/23 04:09:05;;;;;;;1.77;1.60;;;;;;;6.04;61.45;100849.80;460481;112;922967;-83
2021/11/23 04:10:12;;;;;;;1.94;1.48;;;;;;;6.00;61.58;100840.36;459755;112;922493;-84
2021/11/23 04:11:16;;;;;;;4.03;2.21;;;;;;;5.96;61.71;100847.97;459453;112;922626;-83
2021/11/23 04:12:20;;;;;;;2.18;1.93;;;;;;;5.97;61.87;100844.25;460313;112;923054;-82
2021/11/23 04:13:24;;;;;;;1.76;1.66;;;;;;;5.96;61.90;100847.13;461135;112;922479;-84
2021/11/23 04:14:28;;;;;;;3.12;2.48;;;;;;;5.97;61.93;100844.25;454893;115;922404;-84
2021/11/23 04:15:31;;;;;;;2.25;1.95;;;;;;;5.95;61.93;100843.61;459560;114;922538;-83
2021/11/23 04:16:36;;;;;;;2.65;2.37;;;;;;;5.93;61.91;100842.93;458496;114;923166;-83
2021/11/23 04:17:40;;;;;;;3.02;2.34;;;;;;;5.91;61.98;100844.96;460041;113;923309;-84
2021/11/23 04:18:45;;;;;;;3.34;2.31;;;;;;;5.89;62.07;100844.31;460716;112;923410;-84
2021/11/23 04:19:48;;;;;;;2.49;2.28;;;;;;;5.88;62.20;100842.62;458403;113;922519;-84
2021/11/23 04:20:52;;;;;;;3.68;2.45;;;;;;;5.90;62.29;100840.56;459585;112;922463;-84
2021/11/23 04:21:59;;;;;;;2.53;2.05;;;;;;;5.92;62.35;100840.39;459698;113;922624;-84
2021/11/23 04:23:03;;;;;;;3.12;2.33;;;;;;;5.95;62.21;100845.47;460540;113;923027;-84
2021/11/23 04:24:07;;;;;;;4.63;2.37;;;;;;;5.95;62.12;100848.17;459170;112;922603;-83
2021/11/23 04:25:12;;;;;;;3.17;2.61;;;;;;;5.95;62.14;100851.73;459056;114;922553;-84
2021/11/23 04:26:17;;;;;;;2.74;1.96;;;;;;;5.93;62.08;100842.93;460926;112;930280;-82
2021/11/23 04:27:21;;;;;;;3.71;2.72;;;;;;;5.92;62.14;100848.52;460579;112;922638;-84
2021/11/23 04:28:25;;;;;;;2.36;2.02;;;;;;;5.90;62.13;100843.27;459331;113;922923;-84
2021/11/23 04:29:29;;;;;;;2.73;2.19;;;;;;;5.88;62.18;100845.33;453457;115;922643;-83
2021/11/23 04:30:32;;;;;;;2.86;1.82;;;;;;;5.87;62.15;100846.34;455148;113;923022;-83
2021/11/23 04:31:37;;;;;;;2.93;2.29;;;;;;;5.85;62.06;100853.75;460832;112;922508;-83
2021/11/23 04:32:42;;;;;;;3.13;2.06;;;;;;;5.82;62.13;100854.13;461511;112;922555;-85
2021/11/23 04:33:46;;;;;;;1.96;1.76;;;;;;;5.79;62.15;100851.75;459581;114;922646;-82
2021/11/23 04:34:50;;;;;;;2.17;1.97;;;;;;;5.77;62.19;100851.11;460706;113;922481;-84
2021/11/23 04:35:54;;;;;;;2.26;1.90;;;;;;;5.72;62.06;100851.64;459532;113;922486;-82
2021/11/23 04:36:58;;;;;;;2.37;2.05;;;;;;;5.68;62.21;100847.58;461034;114;922592;-83
2021/11/23 04:38:02;;;;;;;2.29;1.72;;;;;;;5.66;62.36;100848.80;460288;113;922443;-83
2021/11/23 04:39:07;;;;;;;2.46;1.89;;;;;;;5.65;62.44;100844.41;462043;112;922722;-85
2021/11/23 04:40:15;;;;;;;2.39;1.93;;;;;;;5.64;62.47;100848.97;460131;114;922566;-83
2021/11/23 04:41:19;;;;;;;2.17;1.84;;;;;;;5.67;62.52;100853.20;461190;114;922487;-84
2021/11/23 04:42:23;;;;;;;3.24;2.23;;;;;;;5.69;62.57;100851.13;461602;113;922389;-83
2021/11/23 04:43:27;;;;;;;2.11;1.88;;;;;;;5.70;62.58;100858.23;460714;112;922667;-85
2021/11/23 04:44:31;;;;;;;2.68;2.48;;;;;;;5.69;62.48;100856.55;461278;113;922635;-83
2021/11/23 04:45:35;;;;;;;2.41;2.21;;;;;;;5.68;62.51;100854.89;459219;112;922691;-83
2021/11/23 04:46:39;;;;;;;2.72;2.48;;;;;;;5.67;62.55;100859.45;459495;112;923285;-85
2021/11/23 04:47:43;;;;;;;2.70;2.12;;;;;;;5.67;62.50;100869.42;459753;114;923490;-85
2021/11/23 04:48:47;;;;;;;2.53;2.33;;;;;;;5.64;62.53;100858.94;462133;112;922314;-85
2021/11/23 04:49:50;;;;;;;2.72;2.18;;;;;;;5.63;62.59;100862.66;459101;112;922416;-84
2021/11/23 04:50:55;;;;;;;2.52;2.28;;;;;;;5.61;62.56;100865.56;461207;113;922246;-84
2021/11/23 04:51:59;;;;;;;2.32;2.08;;;;;;;5.60;62.58;100871.14;462628;112;922347;-82
2021/11/23 04:53:03;;;;;;;8.67;2.32;;;;;;;5.56;62.55;100870.66;461770;112;922053;-82
2021/11/23 04:54:07;;;;;;;2.44;2.11;;;;;;;5.53;62.58;100873.70;460627;109;922315;-84
2021/11/23 04:55:11;;;;;;;2.24;1.84;;;;;;;5.48;62.66;100876.08;462005;112;922104;-83
2021/11/23 04:56:17;;;;;;;2.24;2.04;;;;;;;5.44;62.78;100875.60;461694;113;922145;-81
2021/11/23 04:57:20;;;;;;;2.64;2.37;;;;;;;5.43;62.91;100883.88;454936;115;923030;-83
2021/11/23 04:58:24;;;;;;;2.25;2.07;;;;;;;5.42;62.84;100887.59;453864;114;922570;-84
2021/11/23 04:59:28;;;;;;;2.51;2.22;;;;;;;5.38;62.82;100884.41;456838;113;923101;-84